sensor_id;sensor_type;location;lat;lon;timestamp;pressure;altitude;pressure_sealevel;temperature;humidity
64698;BME280;51124;53.394;-6.294;2024-03-02T00:00:41;98538.05;;;17.26;12.44
64698;BME280;51124;53.394;-6.294;2024-03-02T00:03:09;98535.50;;;17.57;12.48
64698;BME280;51124;53.394;-6.294;2024-03-02T00:05:37;98542.19;;;17.18;12.54
64698;BME280;51124;53.394;-6.294;2024-03-02T00:08:06;98544.76;;;17.47;12.46
64698;BME280;51124;53.394;-6.294;2024-03-02T00:10:38;98548.14;;;17.33;12.47
64698;BME280;51124;53.394;-6.294;2024-03-02T00:13:06;98547.09;;;17.78;12.38
64698;BME280;51124;53.394;-6.294;2024-03-02T00:15:42;98551.31;;;16.67;12.56
64698;BME280;51124;53.394;-6.294;2024-03-02T00:18:03;98555.32;;;17.26;12.51
64698;BME280;51124;53.394;-6.294;2024-03-02T00:20:31;98555.58;;;16.95;12.51
64698;BME280;51124;53.394;-6.294;2024-03-02T00:23:03;98563.98;;;17.22;12.47
64698;BME280;51124;53.394;-6.294;2024-03-02T00:25:38;98563.70;;;14.90;12.30
64698;BME280;51124;53.394;-6.294;2024-03-02T00:28:10;98559.05;;;14.52;11.76
64698;BME280;51124;53.394;-6.294;2024-03-02T00:30:51;98558.24;;;14.18;11.41
64698;BME280;51124;53.394;-6.294;2024-03-02T00:33:08;98559.08;;;15.16;11.03
64698;BME280;51124;53.394;-6.294;2024-03-02T00:35:36;98556.63;;;15.02;10.85
64698;BME280;51124;53.394;-6.294;2024-03-02T00:38:06;98555.78;;;15.18;10.80
64698;BME280;51124;53.394;-6.294;2024-03-02T00:40:34;98556.78;;;14.16;10.65
64698;BME280;51124;53.394;-6.294;2024-03-02T00:43:01;98559.48;;;15.24;10.28
64698;BME280;51124;53.394;-6.294;2024-03-02T00:45:29;98558.13;;;14.54;10.35
64698;BME280;51124;53.394;-6.294;2024-03-02T00:47:56;98556.96;;;14.91;10.17
64698;BME280;51124;53.394;-6.294;2024-03-02T00:50:24;98551.78;;;14.93;10.04
64698;BME280;51124;53.394;-6.294;2024-03-02T00:52:51;98558.93;;;14.51;10.10
64698;BME280;51124;53.394;-6.294;2024-03-02T00:55:19;98564.42;;;14.98;10.22
64698;BME280;51124;53.394;-6.294;2024-03-02T00:57:46;98558.81;;;14.90;9.95
64698;BME280;51124;53.394;-6.294;2024-03-02T01:00:15;98558.52;;;14.74;9.97
64698;BME280;51124;53.394;-6.294;2024-03-02T01:02:42;98556.75;;;14.35;10.11
64698;BME280;51124;53.394;-6.294;2024-03-02T01:05:10;98552.39;;;14.68;9.98
64698;BME280;51124;53.394;-6.294;2024-03-02T01:07:39;98559.40;;;15.04;9.87
64698;BME280;51124;53.394;-6.294;2024-03-02T01:10:07;98557.85;;;14.17;10.01
64698;BME280;51124;53.394;-6.294;2024-03-02T01:12:35;98558.92;;;14.08;9.90
64698;BME280;51124;53.394;-6.294;2024-03-02T01:15:03;98555.34;;;14.28;9.88
64698;BME280;51124;53.394;-6.294;2024-03-02T01:17:30;98559.89;;;14.02;9.79
64698;BME280;51124;53.394;-6.294;2024-03-02T01:19:57;98559.87;;;14.70;9.91
64698;BME280;51124;53.394;-6.294;2024-03-02T01:22:25;98560.36;;;14.77;9.69
64698;BME280;51124;53.394;-6.294;2024-03-02T01:24:52;98560.27;;;14.72;9.85
64698;BME280;51124;53.394;-6.294;2024-03-02T01:27:20;98557.52;;;14.07;9.82
64698;BME280;51124;53.394;-6.294;2024-03-02T01:29:47;98561.45;;;14.96;9.73
64698;BME280;51124;53.394;-6.294;2024-03-02T01:32:14;98560.76;;;13.82;9.80
64698;BME280;51124;53.394;-6.294;2024-03-02T01:34:42;98566.65;;;13.93;9.78
64698;BME280;51124;53.394;-6.294;2024-03-02T01:37:09;98565.43;;;15.32;9.59
64698;BME280;51124;53.394;-6.294;2024-03-02T01:39:37;98561.86;;;14.91;9.73
64698;BME280;51124;53.394;-6.294;2024-03-02T01:42:04;98564.22;;;14.29;9.89
64698;BME280;51124;53.394;-6.294;2024-03-02T01:44:32;98563.03;;;14.77;9.90
64698;BME280;51124;53.394;-6.294;2024-03-02T01:46:59;98560.36;;;14.21;9.76
64698;BME280;51124;53.394;-6.294;2024-03-02T01:49:26;98563.92;;;14.79;9.69
64698;BME280;51124;53.394;-6.294;2024-03-02T01:51:54;98566.49;;;14.39;9.72
64698;BME280;51124;53.394;-6.294;2024-03-02T01:54:21;98567.06;;;14.83;9.86
64698;BME280;51124;53.394;-6.294;2024-03-02T01:56:49;98575.07;;;15.01;9.67
64698;BME280;51124;53.394;-6.294;2024-03-02T01:59:16;98569.27;;;14.13;9.75
64698;BME280;51124;53.394;-6.294;2024-03-02T02:01:44;98569.92;;;14.86;9.59
64698;BME280;51124;53.394;-6.294;2024-03-02T02:04:11;98569.71;;;14.39;9.66
64698;BME280;51124;53.394;-6.294;2024-03-02T02:06:39;98574.04;;;14.56;9.81
64698;BME280;51124;53.394;-6.294;2024-03-02T02:09:08;98581.48;;;14.89;9.86
64698;BME280;51124;53.394;-6.294;2024-03-02T02:11:35;98577.36;;;14.04;9.75
64698;BME280;51124;53.394;-6.294;2024-03-02T02:14:03;98576.30;;;13.78;9.74
64698;BME280;51124;53.394;-6.294;2024-03-02T02:16:30;98578.35;;;13.76;9.62
64698;BME280;51124;53.394;-6.294;2024-03-02T02:18:58;98576.57;;;14.23;9.59
64698;BME280;51124;53.394;-6.294;2024-03-02T02:21:25;98578.70;;;14.66;9.84
64698;BME280;51124;53.394;-6.294;2024-03-02T02:23:52;98575.66;;;16.75;9.81
64698;BME280;51124;53.394;-6.294;2024-03-02T02:26:20;98576.42;;;16.61;10.15
64698;BME280;51124;53.394;-6.294;2024-03-02T02:28:47;98577.47;;;14.69;10.36
64698;BME280;51124;53.394;-6.294;2024-03-02T02:31:15;98581.78;;;17.33;10.26
64698;BME280;51124;53.394;-6.294;2024-03-02T02:33:43;98590.42;;;17.53;11.00
64698;BME280;51124;53.394;-6.294;2024-03-02T02:36:11;98583.38;;;17.11;11.44
64698;BME280;51124;53.394;-6.294;2024-03-02T02:38:42;98588.43;;;16.92;11.57
64698;BME280;51124;53.394;-6.294;2024-03-02T02:41:11;98587.81;;;16.42;11.89
64698;BME280;51124;53.394;-6.294;2024-03-02T02:43:39;98585.51;;;16.82;11.81
64698;BME280;51124;53.394;-6.294;2024-03-02T02:46:07;98583.03;;;17.28;12.05
64698;BME280;51124;53.394;-6.294;2024-03-02T02:48:34;98581.59;;;17.40;11.88
64698;BME280;51124;53.394;-6.294;2024-03-02T02:51:02;98582.42;;;16.68;12.02
64698;BME280;51124;53.394;-6.294;2024-03-02T02:53:30;98584.25;;;16.85;12.14
64698;BME280;51124;53.394;-6.294;2024-03-02T02:55:58;98583.21;;;16.21;12.34
64698;BME280;51124;53.394;-6.294;2024-03-02T02:58:26;98587.92;;;16.47;12.19
64698;BME280;51124;53.394;-6.294;2024-03-02T03:00:54;98584.04;;;16.06;12.26
64698;BME280;51124;53.394;-6.294;2024-03-02T03:03:21;98585.70;;;16.13;12.28
64698;BME280;51124;53.394;-6.294;2024-03-02T03:05:50;98587.23;;;16.80;12.20
64698;BME280;51124;53.394;-6.294;2024-03-02T03:08:18;98582.29;;;16.00;12.30
64698;BME280;51124;53.394;-6.294;2024-03-02T03:10:46;98583.40;;;16.56;12.18
64698;BME280;51124;53.394;-6.294;2024-03-02T03:13:14;98582.56;;;16.51;12.07
64698;BME280;51124;53.394;-6.294;2024-03-02T03:15:42;98583.06;;;16.77;12.21
64698;BME280;51124;53.394;-6.294;2024-03-02T03:18:09;98583.22;;;16.84;12.20
64698;BME280;51124;53.394;-6.294;2024-03-02T03:20:37;98586.94;;;16.75;12.24
64698;BME280;51124;53.394;-6.294;2024-03-02T03:23:05;98588.77;;;14.45;12.19
64698;BME280;51124;53.394;-6.294;2024-03-02T03:25:32;98586.00;;;14.06;11.73
64698;BME280;51124;53.394;-6.294;2024-03-02T03:27:59;98586.35;;;13.81;11.15
64698;BME280;51124;53.394;-6.294;2024-03-02T03:30:27;98587.44;;;14.91;10.64
64698;BME280;51124;53.394;-6.294;2024-03-02T03:32:54;98590.28;;;14.79;10.75
64698;BME280;51124;53.394;-6.294;2024-03-02T03:35:21;98583.45;;;13.62;10.59
64698;BME280;51124;53.394;-6.294;2024-03-02T03:37:49;98586.47;;;12.82;10.44
64698;BME280;51124;53.394;-6.294;2024-03-02T03:40:16;98591.11;;;14.01;10.26
64698;BME280;51124;53.394;-6.294;2024-03-02T03:42:44;98590.40;;;13.65;10.29
64698;BME280;51124;53.394;-6.294;2024-03-02T03:45:11;98589.69;;;13.60;10.21
64698;BME280;51124;53.394;-6.294;2024-03-02T03:47:38;98582.12;;;14.15;9.97
64698;BME280;51124;53.394;-6.294;2024-03-02T03:50:06;98587.25;;;14.22;9.93
64698;BME280;51124;53.394;-6.294;2024-03-02T03:52:34;98587.74;;;13.99;9.94
64698;BME280;51124;53.394;-6.294;2024-03-02T03:55:01;98590.48;;;12.98;9.95
64698;BME280;51124;53.394;-6.294;2024-03-02T03:57:29;98586.91;;;13.30;9.87
64698;BME280;51124;53.394;-6.294;2024-03-02T03:59:57;98588.02;;;13.70;9.86
64698;BME280;51124;53.394;-6.294;2024-03-02T04:02:24;98594.72;;;14.13;9.69
64698;BME280;51124;53.394;-6.294;2024-03-02T04:04:51;98593.64;;;13.50;9.84
64698;BME280;51124;53.394;-6.294;2024-03-02T04:07:19;98596.74;;;13.90;9.77
64698;BME280;51124;53.394;-6.294;2024-03-02T04:09:46;98595.80;;;14.51;9.64
64698;BME280;51124;53.394;-6.294;2024-03-02T04:12:14;98596.45;;;13.22;9.71
64698;BME280;51124;53.394;-6.294;2024-03-02T04:14:41;98594.05;;;13.52;9.50
64698;BME280;51124;53.394;-6.294;2024-03-02T04:17:08;98592.82;;;14.39;9.54
64698;BME280;51124;53.394;-6.294;2024-03-02T04:19:36;98592.46;;;13.51;9.65
64698;BME280;51124;53.394;-6.294;2024-03-02T04:22:03;98591.59;;;13.04;9.68
64698;BME280;51124;53.394;-6.294;2024-03-02T04:24:31;98590.30;;;14.67;9.54
64698;BME280;51124;53.394;-6.294;2024-03-02T04:26:58;98587.59;;;13.51;9.72
64698;BME280;51124;53.394;-6.294;2024-03-02T04:29:25;98588.64;;;14.06;9.59
64698;BME280;51124;53.394;-6.294;2024-03-02T04:31:53;98587.17;;;13.85;9.52
64698;BME280;51124;53.394;-6.294;2024-03-02T04:34:20;98582.69;;;14.40;9.43
64698;BME280;51124;53.394;-6.294;2024-03-02T04:36:48;98586.65;;;14.29;9.61
64698;BME280;51124;53.394;-6.294;2024-03-02T04:39:15;98583.44;;;14.01;9.70
64698;BME280;51124;53.394;-6.294;2024-03-02T04:41:43;98583.43;;;13.58;9.65
64698;BME280;51124;53.394;-6.294;2024-03-02T04:44:10;98585.06;;;12.48;9.78
64698;BME280;51124;53.394;-6.294;2024-03-02T04:46:37;98588.09;;;14.01;9.59
64698;BME280;51124;53.394;-6.294;2024-03-02T04:49:05;98587.78;;;13.44;9.59
64698;BME280;51124;53.394;-6.294;2024-03-02T04:51:32;98594.95;;;13.61;9.60
64698;BME280;51124;53.394;-6.294;2024-03-02T04:53:59;98595.70;;;13.87;9.67
64698;BME280;51124;53.394;-6.294;2024-03-02T04:56:27;98599.28;;;14.16;9.48
64698;BME280;51124;53.394;-6.294;2024-03-02T04:58:54;98601.42;;;14.25;9.45
64698;BME280;51124;53.394;-6.294;2024-03-02T05:01:22;98602.31;;;13.96;9.52
64698;BME280;51124;53.394;-6.294;2024-03-02T05:03:49;98600.36;;;14.00;9.67
64698;BME280;51124;53.394;-6.294;2024-03-02T05:06:16;98599.77;;;14.00;9.67
64698;BME280;51124;53.394;-6.294;2024-03-02T05:08:44;98603.30;;;13.31;9.78
64698;BME280;51124;53.394;-6.294;2024-03-02T05:11:11;98602.86;;;13.34;9.64
64698;BME280;51124;53.394;-6.294;2024-03-02T05:13:39;98602.15;;;13.91;9.38
64698;BME280;51124;53.394;-6.294;2024-03-02T05:16:06;98598.98;;;12.59;9.55
64698;BME280;51124;53.394;-6.294;2024-03-02T05:18:34;98598.93;;;13.87;9.32
64698;BME280;51124;53.394;-6.294;2024-03-02T05:21:01;98601.74;;;15.69;9.72
64698;BME280;51124;53.394;-6.294;2024-03-02T05:23:29;98598.02;;;16.02;10.01
64698;BME280;51124;53.394;-6.294;2024-03-02T05:25:56;98593.39;;;13.77;10.13
64698;BME280;51124;53.394;-6.294;2024-03-02T05:28:24;98592.40;;;17.92;10.14
64698;BME280;51124;53.394;-6.294;2024-03-02T05:30:51;98597.78;;;17.63;10.74
64698;BME280;51124;53.394;-6.294;2024-03-02T05:33:19;98602.48;;;17.27;11.13
64698;BME280;51124;53.394;-6.294;2024-03-02T05:35:47;98605.37;;;16.55;11.36
64698;BME280;51124;53.394;-6.294;2024-03-02T05:38:15;98605.62;;;16.97;11.48
64698;BME280;51124;53.394;-6.294;2024-03-02T05:40:43;98608.34;;;16.92;11.57
64698;BME280;51124;53.394;-6.294;2024-03-02T05:43:10;98612.14;;;16.31;11.70
64698;BME280;51124;53.394;-6.294;2024-03-02T05:45:38;98606.86;;;16.46;11.93
64698;BME280;51124;53.394;-6.294;2024-03-02T05:48:07;98607.55;;;16.08;12.03
64698;BME280;51124;53.394;-6.294;2024-03-02T05:50:35;98606.88;;;16.48;11.80
64698;BME280;51124;53.394;-6.294;2024-03-02T05:53:03;98610.08;;;16.31;11.88
64698;BME280;51124;53.394;-6.294;2024-03-02T05:55:30;98606.86;;;16.83;11.93
64698;BME280;51124;53.394;-6.294;2024-03-02T05:57:58;98614.63;;;16.20;12.03
64698;BME280;51124;53.394;-6.294;2024-03-02T06:00:26;98613.80;;;15.90;11.91
64698;BME280;51124;53.394;-6.294;2024-03-02T06:02:54;98613.49;;;16.82;11.89
64698;BME280;51124;53.394;-6.294;2024-03-02T06:05:21;98614.41;;;15.69;12.17
64698;BME280;51124;53.394;-6.294;2024-03-02T06:07:49;98613.27;;;15.91;12.14
64698;BME280;51124;53.394;-6.294;2024-03-02T06:10:17;98617.26;;;16.18;12.14
64698;BME280;51124;53.394;-6.294;2024-03-02T06:12:45;98620.62;;;15.87;12.21
64698;BME280;51124;53.394;-6.294;2024-03-02T06:15:13;98621.25;;;16.46;12.09
64698;BME280;51124;53.394;-6.294;2024-03-02T06:17:40;98622.71;;;15.96;12.01
64698;BME280;51124;53.394;-6.294;2024-03-02T06:20:09;98621.46;;;14.26;11.74
64698;BME280;51124;53.394;-6.294;2024-03-02T06:22:37;98627.98;;;13.80;11.15
64698;BME280;51124;53.394;-6.294;2024-03-02T06:25:04;98625.87;;;13.44;10.88
64698;BME280;51124;53.394;-6.294;2024-03-02T06:27:31;98631.13;;;14.12;10.55
64698;BME280;51124;53.394;-6.294;2024-03-02T06:29:59;98635.16;;;14.44;10.35
64698;BME280;51124;53.394;-6.294;2024-03-02T06:32:26;98633.98;;;13.28;10.23
64698;BME280;51124;53.394;-6.294;2024-03-02T06:34:54;98635.17;;;12.99;10.02
64698;BME280;51124;53.394;-6.294;2024-03-02T06:37:21;98633.66;;;13.35;9.79
64698;BME280;51124;53.394;-6.294;2024-03-02T06:39:48;98638.68;;;13.84;9.82
64698;BME280;51124;53.394;-6.294;2024-03-02T06:42:16;98634.48;;;13.26;9.88
64698;BME280;51124;53.394;-6.294;2024-03-02T06:44:43;98636.21;;;13.32;9.78
64698;BME280;51124;53.394;-6.294;2024-03-02T06:47:10;98639.08;;;13.68;9.68
64698;BME280;51124;53.394;-6.294;2024-03-02T06:49:38;98641.21;;;13.39;9.58
64698;BME280;51124;53.394;-6.294;2024-03-02T06:52:05;98645.70;;;13.66;9.57
64698;BME280;51124;53.394;-6.294;2024-03-02T06:54:33;98645.91;;;13.19;9.66
64698;BME280;51124;53.394;-6.294;2024-03-02T06:57:00;98643.11;;;13.54;9.49
64698;BME280;51124;53.394;-6.294;2024-03-02T06:59:27;98644.83;;;13.82;9.39
64698;BME280;51124;53.394;-6.294;2024-03-02T07:01:55;98648.79;;;13.77;9.58
64698;BME280;51124;53.394;-6.294;2024-03-02T07:04:22;98644.35;;;13.72;9.37
64698;BME280;51124;53.394;-6.294;2024-03-02T07:06:50;98645.70;;;13.18;9.44
64698;BME280;51124;53.394;-6.294;2024-03-02T07:09:17;98646.83;;;14.16;9.42
64698;BME280;51124;53.394;-6.294;2024-03-02T07:11:44;98649.21;;;14.13;9.26
64698;BME280;51124;53.394;-6.294;2024-03-02T07:14:12;98650.16;;;13.40;9.52
64698;BME280;51124;53.394;-6.294;2024-03-02T07:16:39;98649.34;;;13.61;9.43
64698;BME280;51124;53.394;-6.294;2024-03-02T07:19:07;98647.19;;;13.81;9.34
64698;BME280;51124;53.394;-6.294;2024-03-02T07:21:34;98642.80;;;13.80;9.36
64698;BME280;51124;53.394;-6.294;2024-03-02T07:24:02;98644.22;;;13.60;9.43
64698;BME280;51124;53.394;-6.294;2024-03-02T07:26:29;98646.75;;;13.51;9.37
64698;BME280;51124;53.394;-6.294;2024-03-02T07:28:57;98650.79;;;13.08;9.39
64698;BME280;51124;53.394;-6.294;2024-03-02T07:31:24;98653.56;;;12.78;9.41
64698;BME280;51124;53.394;-6.294;2024-03-02T07:33:52;98652.57;;;13.96;9.32
64698;BME280;51124;53.394;-6.294;2024-03-02T07:36:19;98655.95;;;14.04;9.38
64698;BME280;51124;53.394;-6.294;2024-03-02T07:38:46;98658.27;;;12.81;9.47
64698;BME280;51124;53.394;-6.294;2024-03-02T07:41:14;98655.84;;;13.65;9.25
64698;BME280;51124;53.394;-6.294;2024-03-02T07:43:41;98662.46;;;13.08;9.44
64698;BME280;51124;53.394;-6.294;2024-03-02T07:46:09;98667.40;;;13.90;9.30
64698;BME280;51124;53.394;-6.294;2024-03-02T07:48:36;98666.64;;;13.54;9.46
64698;BME280;51124;53.394;-6.294;2024-03-02T07:51:04;98667.42;;;13.62;9.37
64698;BME280;51124;53.394;-6.294;2024-03-02T07:53:31;98668.79;;;13.93;9.38
64698;BME280;51124;53.394;-6.294;2024-03-02T07:55:59;98668.25;;;14.15;9.40
64698;BME280;51124;53.394;-6.294;2024-03-02T07:58:26;98669.78;;;13.00;9.32
64698;BME280;51124;53.394;-6.294;2024-03-02T08:00:53;98671.46;;;13.91;9.20
64698;BME280;51124;53.394;-6.294;2024-03-02T08:03:21;98677.08;;;13.97;9.27
64698;BME280;51124;53.394;-6.294;2024-03-02T08:05:48;98676.77;;;13.54;9.23
64698;BME280;51124;53.394;-6.294;2024-03-02T08:08:16;98677.11;;;13.08;9.14
64698;BME280;51124;53.394;-6.294;2024-03-02T08:10:43;98681.12;;;13.56;9.10
64698;BME280;51124;53.394;-6.294;2024-03-02T08:13:11;98680.85;;;14.03;9.15
64698;BME280;51124;53.394;-6.294;2024-03-02T08:15:38;98680.85;;;14.24;9.30
64698;BME280;51124;53.394;-6.294;2024-03-02T08:18:06;98687.83;;;16.27;9.44
64698;BME280;51124;53.394;-6.294;2024-03-02T08:20:34;98690.24;;;15.27;10.00
64698;BME280;51124;53.394;-6.294;2024-03-02T08:23:01;98685.21;;;14.41;9.96
64698;BME280;51124;53.394;-6.294;2024-03-02T08:25:29;98686.34;;;17.22;10.07
64698;BME280;51124;53.394;-6.294;2024-03-02T08:27:56;98687.61;;;17.62;10.48
64698;BME280;51124;53.394;-6.294;2024-03-02T08:30:25;98689.23;;;17.28;10.80
64698;BME280;51124;53.394;-6.294;2024-03-02T08:32:53;98692.34;;;16.50;11.11
64698;BME280;51124;53.394;-6.294;2024-03-02T08:35:21;98691.58;;;16.59;11.32
64698;BME280;51124;53.394;-6.294;2024-03-02T08:37:49;98695.00;;;15.88;11.37
64698;BME280;51124;53.394;-6.294;2024-03-02T08:40:17;98692.09;;;16.25;11.46
64698;BME280;51124;53.394;-6.294;2024-03-02T08:42:45;98694.05;;;16.49;11.47
64698;BME280;51124;53.394;-6.294;2024-03-02T08:45:13;98690.34;;;15.96;11.41
64698;BME280;51124;53.394;-6.294;2024-03-02T08:47:41;98691.10;;;15.75;11.42
64698;BME280;51124;53.394;-6.294;2024-03-02T08:50:09;98692.94;;;16.63;11.40
64698;BME280;51124;53.394;-6.294;2024-03-02T08:52:37;98693.45;;;16.05;11.41
64698;BME280;51124;53.394;-6.294;2024-03-02T08:55:05;98694.65;;;16.42;11.53
64698;BME280;51124;53.394;-6.294;2024-03-02T08:57:33;98695.04;;;15.97;11.65
64698;BME280;51124;53.394;-6.294;2024-03-02T09:00:02;98694.25;;;16.14;11.63
64698;BME280;51124;53.394;-6.294;2024-03-02T09:02:30;98699.22;;;16.70;11.61
64698;BME280;51124;53.394;-6.294;2024-03-02T09:04:58;98697.56;;;16.47;11.55
64698;BME280;51124;53.394;-6.294;2024-03-02T09:07:26;98699.88;;;16.29;11.51
64698;BME280;51124;53.394;-6.294;2024-03-02T09:09:54;98700.78;;;15.99;11.55
64698;BME280;51124;53.394;-6.294;2024-03-02T09:12:22;98698.04;;;17.76;10.97
64698;BME280;51124;53.394;-6.294;2024-03-02T09:14:49;98696.25;;;17.33;10.20
64698;BME280;51124;53.394;-6.294;2024-03-02T09:17:17;98696.72;;;15.54;9.81
64698;BME280;51124;53.394;-6.294;2024-03-02T09:19:45;98690.06;;;14.66;9.27
64698;BME280;51124;53.394;-6.294;2024-03-02T09:22:13;98697.19;;;15.99;9.08
64698;BME280;51124;53.394;-6.294;2024-03-02T09:24:40;98694.95;;;14.91;9.62
64698;BME280;51124;53.394;-6.294;2024-03-02T09:27:08;98693.73;;;15.29;9.49
64698;BME280;51124;53.394;-6.294;2024-03-02T09:29:35;98689.76;;;14.78;9.48
64698;BME280;51124;53.394;-6.294;2024-03-02T09:32:03;98689.76;;;14.34;9.41
64698;BME280;51124;53.394;-6.294;2024-03-02T09:34:31;98693.48;;;14.71;9.17
64698;BME280;51124;53.394;-6.294;2024-03-02T09:36:58;98692.14;;;14.97;9.25
64698;BME280;51124;53.394;-6.294;2024-03-02T09:39:26;98696.32;;;15.07;9.01
64698;BME280;51124;53.394;-6.294;2024-03-02T09:41:53;98698.35;;;15.86;8.93
64698;BME280;51124;53.394;-6.294;2024-03-02T09:44:22;98693.42;;;15.36;9.01
64698;BME280;51124;53.394;-6.294;2024-03-02T09:46:51;98689.48;;;15.48;8.97
64698;BME280;51124;53.394;-6.294;2024-03-02T09:49:18;98694.55;;;15.33;8.78
64698;BME280;51124;53.394;-6.294;2024-03-02T09:51:47;98692.72;;;15.30;8.72
64698;BME280;51124;53.394;-6.294;2024-03-02T09:54:14;98691.61;;;15.72;8.46
64698;BME280;51124;53.394;-6.294;2024-03-02T09:56:42;98688.19;;;15.87;8.51
64698;BME280;51124;53.394;-6.294;2024-03-02T09:59:10;98686.08;;;15.59;8.54
64698;BME280;51124;53.394;-6.294;2024-03-02T10:01:37;98684.87;;;17.11;8.40
64698;BME280;51124;53.394;-6.294;2024-03-02T10:04:05;98687.42;;;16.82;8.39
64698;BME280;51124;53.394;-6.294;2024-03-02T10:06:32;98690.37;;;16.11;8.47
64698;BME280;51124;53.394;-6.294;2024-03-02T10:09:00;98679.41;;;16.07;8.55
64698;BME280;51124;53.394;-6.294;2024-03-02T10:11:28;98679.81;;;17.06;8.38
64698;BME280;51124;53.394;-6.294;2024-03-02T10:14:07;98676.97;;;16.78;8.42
64698;BME280;51124;53.394;-6.294;2024-03-02T10:16:24;98685.11;;;16.91;8.12
64698;BME280;51124;53.394;-6.294;2024-03-02T10:18:52;98680.50;;;17.10;8.12
64698;BME280;51124;53.394;-6.294;2024-03-02T10:21:19;98685.43;;;17.31;8.01
64698;BME280;51124;53.394;-6.294;2024-03-02T10:23:47;98684.18;;;16.87;7.89
64698;BME280;51124;53.394;-6.294;2024-03-02T10:26:19;98686.51;;;17.23;7.82
64698;BME280;51124;53.394;-6.294;2024-03-02T10:28:48;98681.88;;;17.09;7.84
64698;BME280;51124;53.394;-6.294;2024-03-02T10:31:16;98680.06;;;17.64;7.91
64698;BME280;51124;53.394;-6.294;2024-03-02T10:33:43;98676.17;;;17.72;7.83
64698;BME280;51124;53.394;-6.294;2024-03-02T10:36:11;98678.97;;;18.06;7.66
64698;BME280;51124;53.394;-6.294;2024-03-02T10:38:40;98676.48;;;17.62;7.65
64698;BME280;51124;53.394;-6.294;2024-03-02T10:41:07;98677.90;;;16.66;7.81
64698;BME280;51124;53.394;-6.294;2024-03-02T10:43:35;98684.17;;;17.15;7.85
64698;BME280;51124;53.394;-6.294;2024-03-02T10:46:03;98682.92;;;18.28;7.79
64698;BME280;51124;53.394;-6.294;2024-03-02T10:48:31;98681.77;;;16.62;7.84
64698;BME280;51124;53.394;-6.294;2024-03-02T10:51:00;98680.57;;;17.24;7.71
64698;BME280;51124;53.394;-6.294;2024-03-02T10:53:27;98679.03;;;17.65;7.65
64698;BME280;51124;53.394;-6.294;2024-03-02T10:55:59;98679.20;;;17.10;7.57
64698;BME280;51124;53.394;-6.294;2024-03-02T10:58:31;98681.01;;;18.33;7.59
64698;BME280;51124;53.394;-6.294;2024-03-02T11:01:00;98676.97;;;17.32;7.53
64698;BME280;51124;53.394;-6.294;2024-03-02T11:03:30;98677.45;;;17.62;7.37
64698;BME280;51124;53.394;-6.294;2024-03-02T11:06:01;98673.18;;;16.99;7.39
64698;BME280;51124;53.394;-6.294;2024-03-02T11:08:30;98680.36;;;17.66;7.32
64698;BME280;51124;53.394;-6.294;2024-03-02T11:11:02;98680.10;;;18.68;7.06
64698;BME280;51124;53.394;-6.294;2024-03-02T11:13:33;98689.75;;;17.84;7.11
64698;BME280;51124;53.394;-6.294;2024-03-02T11:16:09;98686.19;;;20.61;7.52
64698;BME280;51124;53.394;-6.294;2024-03-02T11:18:29;98691.57;;;20.21;7.62
64698;BME280;51124;53.394;-6.294;2024-03-02T11:20:58;98692.16;;;19.10;7.84
64698;BME280;51124;53.394;-6.294;2024-03-02T11:23:34;98698.22;;;21.80;7.73
64698;BME280;51124;53.394;-6.294;2024-03-02T11:25:52;98691.98;;;21.83;8.09
64698;BME280;51124;53.394;-6.294;2024-03-02T11:28:36;98691.58;;;21.81;8.37
64698;BME280;51124;53.394;-6.294;2024-03-02T11:30:54;98692.70;;;22.44;8.41
64698;BME280;51124;53.394;-6.294;2024-03-02T11:33:26;98690.11;;;22.13;8.23
64698;BME280;51124;53.394;-6.294;2024-03-02T11:35:54;98690.68;;;22.51;8.38
64698;BME280;51124;53.394;-6.294;2024-03-02T11:38:24;98690.08;;;21.93;8.50
64698;BME280;51124;53.394;-6.294;2024-03-02T11:40:55;98684.73;;;22.15;8.42
64698;BME280;51124;53.394;-6.294;2024-03-02T11:43:25;98693.64;;;22.22;8.59
64698;BME280;51124;53.394;-6.294;2024-03-02T11:46:00;98685.78;;;22.11;8.58
64698;BME280;51124;53.394;-6.294;2024-03-02T11:48:28;98689.14;;;21.75;8.66
64698;BME280;51124;53.394;-6.294;2024-03-02T11:51:00;98679.66;;;22.47;8.65
64698;BME280;51124;53.394;-6.294;2024-03-02T11:53:28;98681.54;;;22.01;8.55
64698;BME280;51124;53.394;-6.294;2024-03-02T11:55:58;98675.73;;;22.13;8.50
64698;BME280;51124;53.394;-6.294;2024-03-02T11:58:26;98674.56;;;22.06;8.68
64698;BME280;51124;53.394;-6.294;2024-03-02T12:00:55;98676.15;;;22.12;8.57
64698;BME280;51124;53.394;-6.294;2024-03-02T12:03:24;98670.89;;;21.50;8.59
64698;BME280;51124;53.394;-6.294;2024-03-02T12:05:52;98669.02;;;21.87;8.55
64698;BME280;51124;53.394;-6.294;2024-03-02T12:08:21;98666.02;;;22.51;8.62
64698;BME280;51124;53.394;-6.294;2024-03-02T12:10:58;98664.80;;;22.33;8.33
64698;BME280;51124;53.394;-6.294;2024-03-02T12:13:16;98666.39;;;21.97;8.58
64698;BME280;51124;53.394;-6.294;2024-03-02T12:15:44;98665.92;;;20.51;8.64
64698;BME280;51124;53.394;-6.294;2024-03-02T12:18:12;98662.23;;;19.38;8.19
64698;BME280;51124;53.394;-6.294;2024-03-02T12:20:39;98666.17;;;20.17;7.28
64698;BME280;51124;53.394;-6.294;2024-03-02T12:23:07;98662.58;;;20.30;7.01
64698;BME280;51124;53.394;-6.294;2024-03-02T12:25:35;98659.69;;;20.85;6.92
64698;BME280;51124;53.394;-6.294;2024-03-02T12:28:03;98656.22;;;21.29;6.37
64698;BME280;51124;53.394;-6.294;2024-03-02T12:30:32;98655.75;;;21.29;6.30
64698;BME280;51124;53.394;-6.294;2024-03-02T12:33:02;98646.79;;;20.57;6.24
64698;BME280;51124;53.394;-6.294;2024-03-02T12:35:30;98652.25;;;20.40;6.55
64698;BME280;51124;53.394;-6.294;2024-03-02T12:37:58;98646.84;;;20.88;6.29
64698;BME280;51124;53.394;-6.294;2024-03-02T12:40:25;98656.81;;;20.12;6.55
64698;BME280;51124;53.394;-6.294;2024-03-02T12:42:53;98653.30;;;19.69;6.49
64698;BME280;51124;53.394;-6.294;2024-03-02T12:45:20;98650.00;;;20.38;6.66
64698;BME280;51124;53.394;-6.294;2024-03-02T12:47:47;98644.87;;;20.26;6.42
64698;BME280;51124;53.394;-6.294;2024-03-02T12:50:15;98636.04;;;20.55;6.48
64698;BME280;51124;53.394;-6.294;2024-03-02T12:52:42;98633.35;;;19.79;6.57
64698;BME280;51124;53.394;-6.294;2024-03-02T12:55:10;98634.95;;;20.54;6.39
64698;BME280;51124;53.394;-6.294;2024-03-02T12:57:37;98623.37;;;22.26;5.72
64698;BME280;51124;53.394;-6.294;2024-03-02T13:00:08;98622.48;;;21.28;6.03